Time;durP1;ratioP1;P1;durP2;ratioP2;P2;SDS_P1;SDS_P2;PMS_P1;PMS_P2;Temp;Humidity;BMP_temperature;BMP_pressure;BME280_temperature;BME280_humidity;BME280_pressure;Samples;Min_cycle;Max_cycle;Signal;HPM_P1;HPM_P2
2021/06/05 00:01:34;;;;;;;3.92;2.17;;;20.90;83.30;;;;;;5078273;28;20661;-84
2021/06/05 00:04:00;;;;;;;3.30;2.25;;;20.90;82.00;;;;;;5079691;28;20684;-84
2021/06/05 00:06:27;;;;;;;4.22;1.65;;;20.90;83.80;;;;;;5080487;28;20180;-82
2021/06/05 00:08:53;;;;;;;3.72;2.10;;;20.90;82.70;;;;;;5081040;28;20183;-84
2021/06/05 00:11:22;;;;;;;4.65;2.20;;;20.90;82.30;;;;;;5080576;28;20204;-84
2021/06/05 00:13:55;;;;;;;1.73;1.38;;;20.80;82.70;;;;;;5081055;28;20172;-84
2021/06/05 00:16:24;;;;;;;2.70;1.80;;;20.80;81.60;;;;;;5079826;28;20184;-84
2021/06/05 00:18:50;;;;;;;3.88;1.60;;;20.80;82.80;;;;;;5080934;28;20211;-84
2021/06/05 00:21:19;;;;;;;2.78;1.48;;;20.70;82.60;;;;;;5079455;28;20185;-84
2021/06/05 00:23:45;;;;;;;2.35;1.73;;;20.70;80.10;;;;;;5080541;28;20173;-83
2021/06/05 00:26:11;;;;;;;2.60;1.70;;;20.70;80.20;;;;;;5079862;28;20636;-83
2021/06/05 00:28:37;;;;;;;7.28;1.58;;;20.70;79.80;;;;;;5080074;28;20436;-83
2021/06/05 00:31:04;;;;;;;2.20;1.30;;;20.60;80.20;;;;;;5079318;28;20283;-83
2021/06/05 00:33:30;;;;;;;3.40;1.45;;;20.60;80.90;;;;;;5080796;28;20196;-83
2021/06/05 00:35:56;;;;;;;3.05;1.50;;;20.60;80.60;;;;;;5080459;28;20268;-83
2021/06/05 00:38:22;;;;;;;4.57;1.43;;;20.60;80.30;;;;;;5078476;28;20204;-83
2021/06/05 00:40:51;;;;;;;3.47;1.70;;;20.60;80.50;;;;;;5079702;28;20456;-83
2021/06/05 00:43:23;;;;;;;3.03;1.50;;;20.50;82.80;;;;;;5079280;28;20187;-83
2021/06/05 00:45:49;;;;;;;3.05;1.55;;;20.50;83.30;;;;;;5078798;28;20179;-83
2021/06/05 00:48:16;;;;;;;2.70;1.60;;;20.40;83.40;;;;;;5079370;28;20183;-83
2021/06/05 00:50:43;;;;;;;5.90;1.67;;;20.30;83.30;;;;;;5078964;28;20708;-83
2021/06/05 00:53:11;;;;;;;3.45;1.98;;;20.30;84.20;;;;;;5078935;28;20207;-83
2021/06/05 00:55:47;;;;;;;2.78;1.70;;;20.20;84.80;;;;;;5080755;28;20171;-83
2021/06/05 00:58:13;;;;;;;2.72;1.63;;;20.00;86.40;;;;;;5080111;28;20168;-82
2021/06/05 01:00:58;;;;;;;3.40;1.90;;;19.90;86.70;;;;;;5079539;28;20240;-83
2021/06/05 01:03:24;;;;;;;4.97;1.65;;;19.80;87.70;;;;;;5079767;28;20173;-83
2021/06/05 01:06:02;;;;;;;2.70;1.35;;;19.70;88.10;;;;;;5079325;28;20176;-83
2021/06/05 01:08:47;;;;;;;3.70;1.73;;;19.70;88.40;;;;;;5079663;28;20232;-83
2021/06/05 01:11:31;;;;;;;2.60;1.60;;;19.60;88.70;;;;;;5079530;28;20211;-83
2021/06/05 01:14:19;;;;;;;2.72;1.60;;;19.50;89.40;;;;;;5079192;28;20233;-83
2021/06/05 01:16:48;;;;;;;4.25;1.98;;;19.50;89.10;;;;;;5080610;28;20197;-83
2021/06/05 01:19:50;;;;;;;2.47;1.42;;;19.40;88.40;;;;;;5080388;28;20212;-83
2021/06/05 01:22:24;;;;;;;9.43;2.38;;;19.40;89.10;;;;;;5078982;28;20280;-83
2021/06/05 01:25:23;;;;;;;4.57;1.80;;;19.40;89.20;;;;;;5079590;28;20173;-83
2021/06/05 01:27:58;;;;;;;2.25;1.70;;;19.30;89.60;;;;;;5080510;28;20683;-83
2021/06/05 01:30:36;;;;;;;2.75;1.70;;;19.30;89.50;;;;;;5079974;28;20160;-83
2021/06/05 01:33:03;;;;;;;2.95;1.50;;;19.20;88.90;;;;;;5079516;28;20224;-82
2021/06/05 01:35:32;;;;;;;5.28;1.98;;;19.30;89.50;;;;;;5082161;28;20165;-82
2021/06/05 01:37:58;;;;;;;1.80;1.40;;;19.20;89.40;;;;;;5082170;28;20219;-82
2021/06/05 01:40:27;;;;;;;4.45;2.00;;;19.10;89.50;;;;;;5082707;28;20169;-82
2021/06/05 01:42:54;;;;;;;3.17;1.45;;;19.10;89.80;;;;;;5082738;28;20196;-83
2021/06/05 01:45:28;;;;;;;4.00;1.85;;;19.10;89.60;;;;;;5083156;28;20176;-83
2021/06/05 01:47:56;;;;;;;4.88;2.10;;;19.10;89.50;;;;;;5083687;28;20176;-83
2021/06/05 01:50:28;;;;;;;11.30;2.30;;;19.10;89.80;;;;;;5082821;28;20243;-82
2021/06/05 01:52:59;;;;;;;3.08;2.15;;;19.10;88.90;;;;;;5083374;28;20231;-83
2021/06/05 01:55:31;;;;;;;3.03;1.80;;;19.10;89.20;;;;;;5083613;28;20164;-82
2021/06/05 01:58:02;;;;;;;14.75;2.95;;;19.10;89.20;;;;;;5082762;28;20180;-83
2021/06/05 02:00:36;;;;;;;2.20;1.60;;;19.10;89.50;;;;;;5082152;28;20230;-83
2021/06/05 02:03:03;;;;;;;3.10;1.98;;;19.10;89.20;;;;;;5080644;28;20295;-83
2021/06/05 02:05:30;;;;;;;6.15;3.33;;;19.20;89.10;;;;;;5081540;28;20202;-83
2021/06/05 02:07:56;;;;;;;3.65;2.28;;;19.20;88.30;;;;;;5082108;28;20267;-83
2021/06/05 02:10:25;;;;;;;2.30;1.80;;;19.20;88.00;;;;;;5082288;28;20263;-83
2021/06/05 02:12:53;;;;;;;4.93;2.42;;;19.20;88.30;;;;;;5080313;28;20745;-83
2021/06/05 02:15:36;;;;;;;4.20;1.77;;;19.20;88.00;;;;;;5081121;28;20178;-83
2021/06/05 02:18:06;;;;;;;3.15;1.75;;;19.30;88.30;;;;;;5081021;28;20570;-83
2021/06/05 02:20:37;;;;;;;5.18;2.88;;;19.30;88.70;;;;;;5080642;28;20598;-83
2021/06/05 02:23:05;;;;;;;2.28;1.50;;;19.40;87.80;;;;;;5079985;28;20188;-83
2021/06/05 02:25:32;;;;;;;3.22;1.90;;;19.40;88.10;;;;;;5080482;28;20173;-83
2021/06/05 02:28:01;;;;;;;3.67;1.70;;;19.40;88.40;;;;;;5080154;28;20169;-80
2021/06/05 02:30:28;;;;;;;11.68;1.95;;;19.40;88.50;;;;;;5080816;28;20169;-83
2021/06/05 02:32:56;;;;;;;3.17;2.00;;;19.40;88.50;;;;;;5079025;28;20233;-83
2021/06/05 02:35:38;;;;;;;5.25;1.48;;;19.30;89.40;;;;;;5079517;28;20211;-83
2021/06/05 02:38:05;;;;;;;2.03;1.35;;;19.30;88.80;;;;;;5079954;28;20193;-82
2021/06/05 02:40:34;;;;;;;3.08;1.58;;;19.30;89.50;;;;;;5079808;28;20249;-82
2021/06/05 02:43:04;;;;;;;15.27;1.80;;;19.20;89.60;;;;;;5081231;28;20185;-82
2021/06/05 02:45:47;;;;;;;3.05;1.75;;;19.20;89.90;;;;;;5079213;28;20169;-82
2021/06/05 02:48:13;;;;;;;2.47;1.63;;;19.10;90.60;;;;;;5080512;28;20176;-82
2021/06/05 02:50:53;;;;;;;2.55;1.80;;;19.10;90.50;;;;;;5080873;28;20180;-82
2021/06/05 02:53:20;;;;;;;4.15;1.52;;;19.00;90.30;;;;;;5080812;28;20254;-82
2021/06/05 02:55:47;;;;;;;4.82;1.90;;;19.00;90.20;;;;;;5081399;28;20236;-82
2021/06/05 02:58:14;;;;;;;5.35;1.73;;;19.00;90.20;;;;;;5080978;28;20188;-82
2021/06/05 03:00:48;;;;;;;3.70;2.35;;;19.00;90.30;;;;;;5081035;28;20169;-82
2021/06/05 03:03:17;;;;;;;3.58;1.90;;;19.00;90.50;;;;;;5080662;28;20624;-82
2021/06/05 03:05:43;;;;;;;5.72;1.80;;;19.00;90.70;;;;;;5080024;28;20506;-82
2021/06/05 03:08:13;;;;;;;7.72;2.30;;;18.90;91.00;;;;;;5079556;28;20636;-82
2021/06/05 03:10:39;;;;;;;5.38;2.08;;;18.90;91.10;;;;;;5080498;28;20663;-82
2021/06/05 03:13:10;;;;;;;4.60;2.47;;;18.90;91.40;;;;;;5080291;28;20208;-82
2021/06/05 03:15:36;;;;;;;5.45;2.28;;;18.90;91.40;;;;;;5079695;28;20173;-82
2021/06/05 03:18:04;;;;;;;5.78;2.20;;;18.80;91.80;;;;;;5080716;28;20161;-82
2021/06/05 03:20:35;;;;;;;3.83;2.40;;;18.80;91.90;;;;;;5080758;28;20248;-82
2021/06/05 03:23:01;;;;;;;5.43;2.08;;;18.80;92.00;;;;;;5080520;28;20241;-82
2021/06/05 03:25:27;;;;;;;6.70;2.08;;;18.80;92.40;;;;;;5080230;28;20234;-82
2021/06/05 03:27:53;;;;;;;5.47;2.97;;;18.70;93.00;;;;;;5078715;28;20184;-84
2021/06/05 03:30:20;;;;;;;5.60;2.47;;;18.60;93.50;;;;;;5077768;28;20766;-84
2021/06/05 03:32:46;;;;;;;3.15;2.00;;;18.60;93.60;;;;;;5077462;28;20258;-84
2021/06/05 03:35:13;;;;;;;3.33;2.50;;;18.50;93.60;;;;;;5079012;28;20172;-84
2021/06/05 03:37:39;;;;;;;7.53;2.30;;;18.60;93.50;;;;;;5078404;28;20849;-84
2021/06/05 03:40:08;;;;;;;5.00;1.80;;;18.60;93.30;;;;;;5078044;28;20211;-84
2021/06/05 03:42:34;;;;;;;4.03;1.75;;;18.70;93.20;;;;;;5076021;28;20431;-81
2021/06/05 03:45:00;;;;;;;6.70;2.30;;;18.70;93.10;;;;;;5076884;28;20169;-81
2021/06/05 03:47:26;;;;;;;7.90;2.20;;;18.80;92.90;;;;;;5076820;28;20287;-81
2021/06/05 03:49:53;;;;;;;4.77;2.50;;;18.80;92.90;;;;;;5077832;28;20415;-81
2021/06/05 03:52:23;;;;;;;4.15;1.70;;;18.90;92.40;;;;;;5076720;28;20207;-81
2021/06/05 03:54:54;;;;;;;3.08;2.08;;;18.90;92.40;;;;;;5077575;28;20255;-80
2021/06/05 03:57:22;;;;;;;4.88;2.30;;;18.90;92.50;;;;;;5076739;28;20230;-81
2021/06/05 03:59:50;;;;;;;8.70;2.65;;;18.90;92.80;;;;;;5076876;28;20195;-81
2021/06/05 04:02:16;;;;;;;5.22;2.00;;;18.80;93.00;;;;;;5076969;28;20654;-81
2021/06/05 04:04:42;;;;;;;2.60;1.93;;;18.80;93.20;;;;;;5077026;28;20209;-81
2021/06/05 04:07:09;;;;;;;4.53;2.03;;;18.90;93.30;;;;;;5077002;28;20205;-80
2021/06/05 04:09:39;;;;;;;5.30;2.10;;;18.90;93.30;;;;;;5077428;28;20648;-80
2021/06/05 04:12:07;;;;;;;3.13;2.00;;;18.90;93.10;;;;;;5076423;28;20257;-81
2021/06/05 04:14:33;;;;;;;5.65;2.60;;;18.80;93.10;;;;;;5076917;28;20716;-81
2021/06/05 04:16:59;;;;;;;3.58;1.90;;;18.90;93.10;;;;;;5076428;28;20223;-81
2021/06/05 04:19:25;;;;;;;6.75;2.15;;;19.00;93.10;;;;;;5076343;28;20257;-80
2021/06/05 04:21:53;;;;;;;2.83;2.13;;;19.00;92.70;;;;;;5075859;28;20196;-81
2021/06/05 04:24:19;;;;;;;6.38;1.63;;;19.00;92.90;;;;;;5075926;28;20778;-79
2021/06/05 04:26:45;;;;;;;3.60;2.40;;;19.00;92.20;;;;;;5077696;28;20172;-81
2021/06/05 04:29:11;;;;;;;7.80;2.03;;;19.00;92.30;;;;;;5077493;28;20172;-81
2021/06/05 04:31:37;;;;;;;3.60;2.03;;;19.10;92.00;;;;;;5077022;28;20541;-81
2021/06/05 04:34:03;;;;;;;6.00;1.75;;;19.10;91.60;;;;;;5077304;28;20411;-80
2021/06/05 04:36:29;;;;;;;4.68;2.00;;;19.20;92.30;;;;;;5078069;28;20641;-80
2021/06/05 04:38:55;;;;;;;3.93;2.40;;;19.20;92.20;;;;;;5077782;28;20179;-80
2021/06/05 04:41:22;;;;;;;8.55;2.78;;;19.20;92.30;;;;;;5077578;28;20555;-81
2021/06/05 04:43:48;;;;;;;6.60;2.67;;;19.10;92.40;;;;;;5077687;28;20172;-80
2021/06/05 04:46:15;;;;;;;7.40;2.40;;;19.20;92.30;;;;;;5077971;28;20702;-81
2021/06/05 04:48:50;;;;;;;2.75;1.80;;;19.10;92.80;;;;;;5077489;28;20482;-81
2021/06/05 04:51:18;;;;;;;4.78;2.53;;;19.10;92.90;;;;;;5075988;28;20195;-82
2021/06/05 04:53:44;;;;;;;4.18;2.10;;;19.10;92.60;;;;;;5075727;28;20192;-82
2021/06/05 04:56:10;;;;;;;4.10;3.30;;;19.10;92.70;;;;;;5076306;28;20175;-82
2021/06/05 04:58:35;;;;;;;4.30;2.50;;;19.10;92.90;;;;;;5077426;28;20521;-82
2021/06/05 05:01:02;;;;;;;6.27;2.67;;;19.10;92.50;;;;;;5078719;28;20418;-81
2021/06/05 05:03:31;;;;;;;7.97;2.25;;;19.10;92.60;;;;;;5076856;28;20173;-81
2021/06/05 05:06:00;;;;;;;5.00;2.47;;;19.10;92.50;;;;;;5076810;28;20263;-81
2021/06/05 05:08:28;;;;;;;5.32;2.42;;;19.10;92.30;;;;;;5078577;28;20202;-81
2021/06/05 05:10:54;;;;;;;6.47;2.80;;;19.10;92.80;;;;;;5081194;28;20179;-81
2021/06/05 05:13:24;;;;;;;6.28;2.50;;;19.10;92.80;;;;;;5080137;28;20203;-81
2021/06/05 05:15:50;;;;;;;5.45;2.00;;;19.20;92.60;;;;;;5080639;28;20161;-81
2021/06/05 05:18:17;;;;;;;7.13;2.10;;;19.20;92.30;;;;;;5081066;28;20172;-82
2021/06/05 05:20:44;;;;;;;3.75;2.30;;;19.20;92.30;;;;;;5080464;28;20253;-81
2021/06/05 05:23:11;;;;;;;3.28;1.90;;;19.20;92.40;;;;;;5080948;28;20183;-82
2021/06/05 05:25:39;;;;;;;3.22;1.85;;;19.20;92.30;;;;;;5080322;28;20202;-82
2021/06/05 05:28:05;;;;;;;6.13;2.72;;;19.30;92.40;;;;;;5080729;28;20196;-82
2021/06/05 05:30:41;;;;;;;3.78;2.15;;;19.30;92.40;;;;;;5081062;28;20236;-82
2021/06/05 05:33:08;;;;;;;8.18;2.50;;;19.30;92.30;;;;;;5080072;28;20223;-81
2021/06/05 05:35:35;;;;;;;3.67;2.15;;;19.40;92.10;;;;;;5080362;28;20173;-81
2021/06/05 05:38:02;;;;;;;5.50;2.22;;;19.30;91.80;;;;;;5079480;28;20235;-83
2021/06/05 05:40:29;;;;;;;6.18;2.60;;;19.40;91.90;;;;;;5079843;28;20232;-82
2021/06/05 05:42:55;;;;;;;3.80;2.03;;;19.30;91.50;;;;;;5080189;28;20609;-82
2021/06/05 05:45:22;;;;;;;5.37;3.03;;;19.30;91.90;;;;;;5079884;28;20175;-82
2021/06/05 05:47:48;;;;;;;4.88;1.92;;;19.40;92.00;;;;;;5079500;28;20410;-81
2021/06/05 05:50:16;;;;;;;3.17;2.40;;;19.40;92.20;;;;;;5079389;28;20200;-82
2021/06/05 05:52:42;;;;;;;3.47;2.08;;;19.40;92.00;;;;;;5079329;28;20548;-82
2021/06/05 05:55:09;;;;;;;7.40;2.13;;;19.40;91.80;;;;;;5079273;28;20215;-82
2021/06/05 05:57:35;;;;;;;5.30;2.03;;;19.60;92.10;;;;;;5079310;28;20801;-82
2021/06/05 06:00:06;;;;;;;5.88;2.42;;;19.60;91.40;;;;;;5079391;28;20699;-82
2021/06/05 06:02:31;;;;;;;7.03;2.58;;;19.60;91.90;;;;;;5078359;28;20764;-82
2021/06/05 06:04:57;;;;;;;3.67;2.20;;;19.70;92.00;;;;;;5079132;28;20169;-82
2021/06/05 06:07:23;;;;;;;3.10;1.97;;;19.80;91.70;;;;;;5079714;28;20176;-82
2021/06/05 06:09:49;;;;;;;4.60;2.47;;;19.90;91.40;;;;;;5081710;28;20708;-82
2021/06/05 06:12:15;;;;;;;3.50;2.13;;;20.00;90.80;;;;;;5079020;28;20285;-81
2021/06/05 06:14:40;;;;;;;8.30;2.10;;;20.00;90.10;;;;;;5078643;28;20168;-80
2021/06/05 06:17:06;;;;;;;4.23;1.83;;;20.00;91.10;;;;;;5078881;28;20411;-81
2021/06/05 06:19:32;;;;;;;4.70;2.13;;;20.10;90.10;;;;;;5078588;28;20210;-82
2021/06/05 06:21:58;;;;;;;5.88;2.20;;;20.20;90.10;;;;;;5080013;28;20192;-82
2021/06/05 06:24:24;;;;;;;4.67;2.23;;;20.40;89.50;;;;;;5079910;28;20172;-82
2021/06/05 06:26:50;;;;;;;4.55;2.13;;;20.40;88.90;;;;;;5079843;28;20169;-81
2021/06/05 06:29:18;;;;;;;4.90;2.10;;;20.50;88.40;;;;;;5080328;28;20191;-82
2021/06/05 06:31:47;;;;;;;6.80;2.63;;;20.60;88.00;;;;;;5080305;28;20526;-82
2021/06/05 06:34:14;;;;;;;5.28;2.85;;;20.80;87.30;;;;;;5084008;28;20305;-83
2021/06/05 06:36:45;;;;;;;5.78;2.20;;;20.90;87.00;;;;;;5081519;28;20645;-83
2021/06/05 06:39:14;;;;;;;4.45;2.35;;;21.00;86.00;;;;;;5081813;28;20517;-82
2021/06/05 06:41:42;;;;;;;11.20;2.33;;;21.10;85.20;;;;;;5080856;28;20257;-83
2021/06/05 06:44:09;;;;;;;3.95;2.50;;;21.30;84.60;;;;;;5080057;28;20172;-82
2021/06/05 06:46:46;;;;;;;7.82;2.65;;;21.40;84.60;;;;;;5080306;28;20676;-81
2021/06/05 06:49:14;;;;;;;6.07;2.30;;;21.50;85.90;;;;;;5082840;28;20175;-83
2021/06/05 06:51:40;;;;;;;3.42;2.30;;;21.70;85.50;;;;;;5079445;28;20749;-83
2021/06/05 06:54:07;;;;;;;2.85;2.00;;;21.90;82.60;;;;;;5079067;28;20215;-82
2021/06/05 06:56:33;;;;;;;3.35;2.17;;;22.00;82.00;;;;;;5079212;28;20164;-83
2021/06/05 06:58:59;;;;;;;4.03;2.05;;;22.00;83.50;;;;;;5080645;28;20183;-85
2021/06/05 07:01:26;;;;;;;7.07;2.50;;;22.10;81.40;;;;;;5081127;28;20222;-83
2021/06/05 07:03:52;;;;;;;2.65;1.85;;;22.20;80.50;;;;;;5080458;28;20176;-83
2021/06/05 07:06:19;;;;;;;2.67;2.03;;;22.30;80.60;;;;;;5079308;28;20207;-83
2021/06/05 07:08:45;;;;;;;3.78;2.03;;;22.50;80.50;;;;;;5079683;28;20172;-83
2021/06/05 07:11:14;;;;;;;4.93;2.25;;;22.60;79.50;;;;;;5079846;28;20275;-83
2021/06/05 07:13:40;;;;;;;3.58;2.10;;;22.70;80.30;;;;;;5079611;28;20196;-83
2021/06/05 07:16:07;;;;;;;6.38;2.53;;;22.90;79.10;;;;;;5081668;28;20251;-83
2021/06/05 07:18:34;;;;;;;4.07;1.50;;;23.10;78.40;;;;;;5081508;28;20649;-83
2021/06/05 07:21:01;;;;;;;4.70;2.10;;;23.30;77.80;;;;;;5081710;28;20164;-83
2021/06/05 07:23:28;;;;;;;2.25;1.80;;;23.50;76.90;;;;;;5081189;28;20172;-83
2021/06/05 07:25:56;;;;;;;4.22;1.70;;;23.60;76.40;;;;;;5080718;28;20172;-82
2021/06/05 07:28:30;;;;;;;5.20;2.15;;;23.70;76.90;;;;;;5080138;28;20179;-84
2021/06/05 07:30:57;;;;;;;3.22;1.73;;;23.70;76.00;;;;;;5079715;28;20707;-82
2021/06/05 07:33:24;;;;;;;4.63;2.13;;;23.60;75.90;;;;;;5079581;28;20254;-83
2021/06/05 07:35:52;;;;;;;7.13;2.10;;;23.60;76.00;;;;;;5080074;28;20264;-83
2021/06/05 07:38:19;;;;;;;6.13;1.90;;;23.50;76.70;;;;;;5078916;28;20179;-84
2021/06/05 07:40:47;;;;;;;2.38;1.60;;;23.50;78.10;;;;;;5079145;28;20176;-83
2021/06/05 07:43:15;;;;;;;3.67;1.90;;;23.70;78.30;;;;;;5079642;28;20168;-84
2021/06/05 07:45:41;;;;;;;4.13;2.10;;;23.80;77.10;;;;;;5080448;28;20215;-83
2021/06/05 07:48:07;;;;;;;3.05;1.60;;;23.90;78.00;;;;;;5083207;28;20168;-84
2021/06/05 07:50:33;;;;;;;5.22;2.00;;;24.00;76.30;;;;;;5081259;28;20182;-83
2021/06/05 07:52:59;;;;;;;3.50;1.70;;;24.00;76.70;;;;;;5079080;28;20214;-83
2021/06/05 07:55:26;;;;;;;3.30;2.03;;;24.00;73.90;;;;;;5081871;28;20231;-84
2021/06/05 07:57:52;;;;;;;3.08;2.08;;;23.90;74.80;;;;;;5082866;28;20841;-84
2021/06/05 08:00:24;;;;;;;6.70;3.13;;;23.80;75.60;;;;;;5081719;28;20259;-84
2021/06/05 08:02:50;;;;;;;2.78;1.75;;;23.80;77.10;;;;;;5079832;28;20200;-82
2021/06/05 08:05:17;;;;;;;3.65;2.10;;;23.80;75.30;;;;;;5080845;28;20169;-84
2021/06/05 08:07:43;;;;;;;4.90;2.25;;;23.80;76.00;;;;;;5081667;28;20789;-83
2021/06/05 08:10:10;;;;;;;3.33;1.73;;;23.90;76.30;;;;;;5081280;28;20183;-84
2021/06/05 08:12:37;;;;;;;4.50;2.38;;;23.90;75.10;;;;;;5079791;28;20458;-83
2021/06/05 08:15:05;;;;;;;2.78;1.55;;;23.90;76.00;;;;;;5079888;28;20164;-84
2021/06/05 08:17:31;;;;;;;4.35;1.48;;;24.00;75.10;;;;;;5081140;28;20192;-84
2021/06/05 08:19:57;;;;;;;3.77;1.63;;;24.10;75.50;;;;;;5079843;28;20664;-83
2021/06/05 08:22:26;;;;;;;3.55;1.63;;;24.00;74.50;;;;;;5080221;28;20189;-84
2021/06/05 08:24:51;;;;;;;3.85;1.80;;;24.10;76.00;;;;;;5080305;28;20192;-83
2021/06/05 08:27:18;;;;;;;3.00;1.97;;;24.10;73.80;;;;;;5082565;28;20180;-84
2021/06/05 08:29:45;;;;;;;3.65;2.03;;;24.10;74.10;;;;;;5079821;28;20177;-84
2021/06/05 08:32:12;;;;;;;4.35;2.25;;;24.00;74.20;;;;;;5081530;28;20200;-83
2021/06/05 08:34:38;;;;;;;3.47;1.58;;;23.90;75.60;;;;;;5080192;28;20168;-83
2021/06/05 08:37:04;;;;;;;2.53;1.97;;;23.70;75.20;;;;;;5080354;28;20698;-84
2021/06/05 08:39:30;;;;;;;7.18;2.15;;;23.60;77.40;;;;;;5079869;28;20411;-83
2021/06/05 08:42:00;;;;;;;5.57;1.77;;;23.50;77.10;;;;;;5079930;28;20192;-83
2021/06/05 08:44:35;;;;;;;3.42;1.90;;;23.50;78.30;;;;;;5078621;28;20229;-84
2021/06/05 08:47:21;;;;;;;2.55;1.70;;;23.40;79.40;;;;;;5081124;28;20176;-84
2021/06/05 08:49:48;;;;;;;3.58;1.77;;;23.40;76.90;;;;;;5079417;28;20617;-83
2021/06/05 08:52:27;;;;;;;2.85;1.92;;;23.20;77.30;;;;;;5079928;28;20200;-83
2021/06/05 08:54:56;;;;;;;4.18;2.00;;;23.10;78.50;;;;;;5080710;28;20191;-84
2021/06/05 08:57:34;;;;;;;6.82;2.50;;;23.20;79.50;;;;;;5080064;28;20230;-83
2021/06/05 09:00:43;;;;;;;6.97;1.90;;;23.30;78.90;;;;;;5079272;28;20168;-83
2021/06/05 09:03:15;;;;;;;5.70;2.17;;;23.40;77.40;;;;;;5080311;28;20543;-84
2021/06/05 09:05:55;;;;;;;5.35;1.60;;;23.40;77.40;;;;;;5080448;28;20160;-84
2021/06/05 09:08:22;;;;;;;3.38;1.65;;;23.40;77.80;;;;;;5076789;28;20179;-86
2021/06/05 09:10:52;;;;;;;3.10;2.05;;;23.50;76.90;;;;;;5072909;28;20176;-85
2021/06/05 09:13:17;;;;;;;2.08;1.65;;;23.40;75.80;;;;;;5074258;28;20206;-86
2021/06/05 09:15:43;;;;;;;2.47;1.40;;;23.40;76.40;;;;;;5073018;28;20164;-85
2021/06/05 09:18:12;;;;;;;1.80;1.60;;;23.60;76.30;;;;;;5072250;28;20168;-85
2021/06/05 09:21:00;;;;;;;6.82;2.00;;;23.70;76.30;;;;;;5072640;28;20611;-84
2021/06/05 09:23:36;;;;;;;3.20;1.63;;;23.60;75.30;;;;;;5073124;28;20173;-85
2021/06/05 09:26:25;;;;;;;5.85;1.60;;;23.70;77.80;;;;;;5074009;28;20184;-88
2021/06/05 09:29:15;;;;;;;5.53;2.10;;;23.70;75.60;;;;;;5072261;28;20604;-86
2021/06/05 09:32:10;;;;;;;2.10;1.45;;;23.80;74.90;;;;;;5072594;28;20568;-85
2021/06/05 09:34:43;;;;;;;4.28;1.83;;;23.80;76.40;;;;;;5072570;28;20214;-88
2021/06/05 09:37:27;;;;;;;3.30;1.90;;;23.80;75.60;;;;;;5072497;28;20297;-86
2021/06/05 09:40:12;;;;;;;3.50;1.95;;;23.60;74.50;;;;;;5072487;28;20173;-86
2021/06/05 09:42:42;;;;;;;6.60;1.90;;;23.60;75.60;;;;;;5072355;28;20283;-90
2021/06/05 09:45:40;;;;;;;4.72;2.30;;;23.50;78.40;;;;;;5073147;28;20165;-90
2021/06/05 09:48:40;;;;;;;4.85;1.90;;;23.60;76.40;;;;;;5073801;28;20538;-90
2021/06/05 09:51:29;;;;;;;3.83;1.70;;;23.50;78.50;;;;;;5072585;28;20291;-85
2021/06/05 09:54:27;;;;;;;5.50;1.88;;;23.50;77.00;;;;;;5073474;28;20231;-84
2021/06/05 09:56:53;;;;;;;5.10;2.15;;;23.50;78.80;;;;;;5076722;28;20625;-85
2021/06/05 09:59:28;;;;;;;4.15;1.88;;;23.60;77.30;;;;;;5080195;28;20164;-86
2021/06/05 10:02:00;;;;;;;2.10;1.70;;;23.60;77.80;;;;;;5075116;28;20265;-87
2021/06/05 10:04:29;;;;;;;2.38;1.60;;;23.60;76.00;;;;;;5075370;28;20169;-87
2021/06/05 10:06:57;;;;;;;4.60;1.90;;;23.50;74.90;;;;;;5076075;28;20173;-84
2021/06/05 10:09:26;;;;;;;5.18;2.40;;;23.40;75.80;;;;;;5076109;28;20632;-85
2021/06/05 10:12:01;;;;;;;5.45;2.30;;;23.50;75.80;;;;;;5075736;28;20189;-85
2021/06/05 10:14:57;;;;;;;4.20;1.90;;;23.40;77.30;;;;;;5075915;28;20517;-85
2021/06/05 10:17:37;;;;;;;3.42;1.90;;;23.50;77.30;;;;;;5075947;28;20156;-85
2021/06/05 10:20:15;;;;;;;8.23;3.03;;;23.60;77.10;;;;;;5076015;28;20185;-84
2021/06/05 10:22:42;;;;;;;5.82;2.42;;;23.60;77.40;;;;;;5076215;28;20187;-86
2021/06/05 10:25:17;;;;;;;3.30;2.28;;;23.60;78.40;;;;;;5076259;28;20177;-87
2021/06/05 10:27:45;;;;;;;3.75;2.40;;;23.70;77.40;;;;;;5076230;28;20667;-88
2021/06/05 10:30:49;;;;;;;4.88;2.15;;;23.70;78.30;;;;;;5075644;28;20632;-87
2021/06/05 10:33:31;;;;;;;3.65;2.13;;;23.70;78.10;;;;;;5069767;28;20199;-87
2021/06/05 10:35:58;;;;;;;6.20;2.20;;;23.70;77.10;;;;;;5077382;28;20165;-87
2021/06/05 10:38:38;;;;;;;3.47;2.28;;;23.70;77.40;;;;;;5077307;28;20168;-89
2021/06/05 10:41:10;;;;;;;4.25;2.45;;;23.70;78.50;;;;;;5078385;28;20192;-88
2021/06/05 10:43:37;;;;;;;7.53;3.35;;;23.60;78.80;;;;;;5077544;28;20173;-88
2021/06/05 10:46:17;;;;;;;2.50;2.00;;;23.70;80.30;;;;;;5077610;28;20176;-88
2021/06/05 10:48:44;;;;;;;3.10;2.20;;;23.80;78.30;;;;;;5077758;28;20168;-88
2021/06/05 10:51:26;;;;;;;3.83;1.92;;;23.90;79.40;;;;;;5075921;28;20199;-88
2021/06/05 10:54:05;;;;;;;5.70;2.20;;;24.10;78.70;;;;;;5075430;28;20224;-89
2021/06/05 10:56:40;;;;;;;3.78;1.75;;;24.20;78.50;;;;;;5076477;28;20243;-88
2021/06/05 10:59:31;;;;;;;7.10;3.05;;;24.40;77.10;;;;;;5076967;28;20640;-89
2021/06/05 11:01:59;;;;;;;7.28;2.05;;;24.50;79.20;;;;;;5069102;28;20201;-87
2021/06/05 11:04:31;;;;;;;3.45;2.00;;;24.60;78.00;;;;;;5076253;28;20248;-88
2021/06/05 11:07:03;;;;;;;3.95;2.35;;;24.60;78.70;;;;;;5075691;28;20168;-88
2021/06/05 11:09:30;;;;;;;3.85;2.65;;;24.50;81.20;;;;;;5077833;28;20180;-89
2021/06/05 11:11:59;;;;;;;3.67;2.33;;;24.10;78.90;;;;;;5075568;28;20192;-86
2021/06/05 11:14:37;;;;;;;5.38;2.65;;;24.00;82.80;;;;;;5074677;28;20259;-86
2021/06/05 11:17:47;;;;;;;3.58;2.13;;;24.00;82.30;;;;;;5074587;28;20172;-86
2021/06/05 11:20:19;;;;;;;2.42;1.67;;;23.70;82.40;;;;;;5072526;28;20255;-86
2021/06/05 11:22:48;;;;;;;4.07;2.53;;;23.80;82.30;;;;;;5074837;28;20206;-86
2021/06/05 11:25:14;;;;;;;10.02;2.80;;;23.90;81.40;;;;;;5074534;28;20173;-86
2021/06/05 11:27:40;;;;;;;5.10;2.30;;;24.00;80.80;;;;;;5074863;28;20244;-86
2021/06/05 11:30:21;;;;;;;5.03;1.80;;;24.00;83.40;;;;;;5074735;28;20208;-86
2021/06/05 11:33:00;;;;;;;4.25;2.47;;;24.20;84.40;;;;;;5075322;28;20507;-86
2021/06/05 11:35:58;;;;;;;4.22;2.03;;;24.30;82.30;;;;;;5075193;28;20193;-86
2021/06/05 11:38:23;;;;;;;7.45;2.05;;;24.40;80.20;;;;;;5074883;28;20679;-86
2021/06/05 11:40:57;;;;;;;4.90;2.07;;;24.60;80.90;;;;;;5075437;28;20168;-86
2021/06/05 11:43:29;;;;;;;3.28;1.50;;;24.70;80.50;;;;;;5077149;28;20225;-87
2021/06/05 11:46:32;;;;;;;4.97;1.70;;;24.80;77.30;;;;;;5073891;28;20176;-86
2021/06/05 11:49:05;;;;;;;2.72;1.65;;;25.00;81.00;;;;;;5074379;28;20182;-87
2021/06/05 11:51:40;;;;;;;3.72;2.33;;;25.30;80.20;;;;;;5074144;28;20633;-86
2021/06/05 11:54:14;;;;;;;5.30;1.50;;;25.50;73.10;;;;;;5074684;28;20200;-87
2021/06/05 11:56:59;;;;;;;1.77;1.60;;;25.60;70.90;;;;;;5077625;28;20174;-87
2021/06/05 11:59:48;;;;;;;4.35;2.05;;;25.70;71.90;;;;;;5076835;28;20651;-88
2021/06/05 12:02:23;;;;;;;1.60;1.13;;;25.70;74.60;;;;;;5074960;28;20203;-88
2021/06/05 12:04:56;;;;;;;3.67;1.35;;;25.70;69.80;;;;;;5075647;28;20188;-90
2021/06/05 12:07:33;;;;;;;3.90;1.73;;;25.60;69.60;;;;;;5075234;28;20169;-87
2021/06/05 12:10:00;;;;;;;5.47;1.23;;;25.50;67.30;;;;;;5076574;28;20171;-87
2021/06/05 12:12:37;;;;;;;2.03;1.50;;;25.40;69.20;;;;;;5075867;28;20208;-87
2021/06/05 12:15:11;;;;;;;2.15;1.35;;;25.40;69.90;;;;;;5075401;28;20175;-87
2021/06/05 12:17:43;;;;;;;4.65;1.55;;;25.50;68.70;;;;;;5076541;28;20169;-87
2021/06/05 12:20:15;;;;;;;1.45;1.30;;;25.50;67.60;;;;;;5074891;28;20666;-87
2021/06/05 12:22:44;;;;;;;6.18;1.75;;;25.40;69.50;;;;;;5074897;28;20192;-89
2021/06/05 12:25:41;;;;;;;5.72;1.80;;;25.40;69.90;;;;;;5073311;28;20176;-89
2021/06/05 12:28:16;;;;;;;3.08;1.10;;;25.40;68.50;;;;;;5065205;28;20180;-89
2021/06/05 12:30:46;;;;;;;3.33;1.65;;;25.30;67.80;;;;;;5073150;28;20168;-89
2021/06/05 12:33:28;;;;;;;8.60;2.88;;;25.20;68.90;;;;;;5073610;28;20342;-88
2021/06/05 12:35:54;;;;;;;3.95;2.20;;;25.10;72.40;;;;;;5073694;28;20183;-88
2021/06/05 12:38:41;;;;;;;2.53;1.30;;;24.90;74.90;;;;;;5074656;28;20168;-89
2021/06/05 12:41:16;;;;;;;1.75;1.40;;;24.70;78.30;;;;;;5073996;28;20198;-89
2021/06/05 12:43:44;;;;;;;2.65;1.63;;;24.60;74.60;;;;;;5074568;28;20632;-90
2021/06/05 12:46:17;;;;;;;5.70;1.83;;;24.60;80.20;;;;;;5074140;28;20180;-89
2021/06/05 12:48:43;;;;;;;4.28;2.08;;;24.80;80.30;;;;;;5073953;28;20180;-89
2021/06/05 12:51:14;;;;;;;3.30;2.27;;;25.10;80.10;;;;;;5074097;28;20242;-89
2021/06/05 12:53:40;;;;;;;2.25;1.83;;;25.20;74.40;;;;;;5073137;28;20974;-89
2021/06/05 12:56:35;;;;;;;4.85;2.22;;;25.30;76.70;;;;;;5073107;28;20264;-89
2021/06/05 12:59:03;;;;;;;3.85;2.78;;;25.50;76.90;;;;;;5068040;28;20664;-89
2021/06/05 13:01:42;;;;;;;5.53;2.85;;;25.90;72.10;;;;;;5074144;28;20188;-89
2021/06/05 13:04:35;;;;;;;2.55;1.70;;;26.00;71.20;;;;;;5073209;28;20184;-88
2021/06/05 13:07:04;;;;;;;2.05;1.77;;;26.00;71.00;;;;;;5073772;28;20555;-88